This is the latest recevied weather packets stored in our database for station/object K3BAK-13. If no packets are shown the sender has not sent any weather packets the latest 10 day(s).
| Time | Temp. | Humidity | Pressure | Rain* | Wind** | Luminosity | Snow |
|---|---|---|---|---|---|---|---|
| 1778014560 | 22.78° C | 53% | 1009 hPa | 0 mm | - | - | - |
| 1778013363 | 22.22° C | 57% | 1008.9 hPa | 0 mm | - | - | - |
| 1778008560 | 23.33° C | 51% | 1009.4 hPa | 0 mm | - | - | - |
| 1778004972 | 23.33° C | 52% | 1009.4 hPa | 0 mm | - | - | - |
| 1778004060 | 22.78° C | 51% | 1009.4 hPa | 0 mm | - | - | - |
| 1778000759 | 22.22° C | 52% | 1009.2 hPa | 0 mm | - | - | - |
| 1778000159 | 22.78° C | 51% | 1009.2 hPa | 0 mm | - | - | - |
| 1777999563 | 22.78° C | 52% | 1009.2 hPa | 0 mm | - | - | - |
| 1777998959 | 22.78° C | 52% | 1009.4 hPa | 0 mm | - | - | - |
| 1777998659 | 22.78° C | 51% | 1009.5 hPa | 0 mm | - | - | - |
| 1777996559 | 22.22° C | 54% | 1009.7 hPa | 0 mm | - | - | - |
| 1777995071 | 21.67° C | 54% | 1009.6 hPa | 0 mm | - | - | - |
| 1777991759 | 21.11° C | 57% | 1009.5 hPa | 0 mm | - | - | - |
| 1777989668 | 20° C | 59% | 1009.8 hPa | 0 mm | - | - | - |
| 1777987859 | 19.44° C | 61% | 1010.3 hPa | 0 mm | - | - | - |
| 1777983961 | 18.89° C | 63% | 1010 hPa | 0 mm | - | - | - |
| 1777981858 | 18.33° C | 64% | 1010.1 hPa | 0 mm | - | - | - |
| 1777981561 | 18.33° C | 64% | 1010.2 hPa | 0 mm | - | - | - |
| 1777980959 | 17.78° C | 65% | 1010.1 hPa | 0 mm | - | - | - |
| 1777977959 | 17.22° C | 68% | 1009.6 hPa | 0 mm | - | - | - |
| 1777977658 | 17.22° C | 68% | 1009.5 hPa | 0 mm | - | - | - |
| 1777977359 | 17.22° C | 68% | 1009.4 hPa | 0 mm | - | - | - |
| 1777974659 | 17.22° C | 68% | 1009 hPa | 0 mm | - | - | - |
| 1777974361 | 17.22° C | 68% | 1008.9 hPa | 0 mm | - | - | - |
| 1777971359 | 16.67° C | 70% | 1008.8 hPa | 0 mm | - | - | - |
* Rain latest hour (hover to see other rain measurements)
** Current wind speed in m/s (hover to see current wind gust speed)